Time;durP1;ratioP1;P1;durP2;ratioP2;P2;SDS_P1;SDS_P2;PMS_P1;PMS_P2;Temp;Humidity;BMP_temperature;BMP_pressure;BME280_temperature;BME280_humidity;BME280_pressure;Samples;Min_cycle;Max_cycle;Signal;HPM_P1;HPM_P2
2022/05/02 00:01:10;;;;;;;8.03;3.83;;;10.50;98.60;;;;;;5201542;28;20180;-55
2022/05/02 00:03:41;;;;;;;3.50;3.20;;;10.50;98.20;;;;;;5205321;28;20512;-54
2022/05/02 00:06:11;;;;;;;7.30;3.80;;;10.50;98.30;;;;;;5215976;28;20191;-50
2022/05/02 00:08:42;;;;;;;6.10;4.20;;;10.50;98.30;;;;;;5207760;28;20204;-52
2022/05/02 00:11:13;;;;;;;4.13;3.90;;;10.50;98.30;;;;;;5188277;28;20188;-53
2022/05/02 00:13:44;;;;;;;3.67;3.30;;;10.50;98.50;;;;;;5217998;28;20266;-52
2022/05/02 00:16:14;;;;;;;8.67;4.53;;;10.50;98.60;;;;;;5184161;28;20183;-52
2022/05/02 00:18:45;;;;;;;4.20;3.80;;;10.40;98.60;;;;;;5190889;28;20233;-52
2022/05/02 00:21:15;;;;;;;6.47;3.47;;;10.50;98.70;;;;;;5211644;28;20436;-50
2022/05/02 00:23:46;;;;;;;13.20;4.20;;;10.40;98.70;;;;;;5203505;28;20214;-52
2022/05/02 00:26:16;;;;;;;3.23;3.03;;;10.40;98.60;;;;;;5212972;28;20184;-52
2022/05/02 00:28:47;;;;;;;5.10;3.80;;;10.40;98.50;;;;;;5204990;28;20208;-52
2022/05/02 00:31:17;;;;;;;4.80;3.37;;;10.40;98.50;;;;;;5198677;28;20180;-52
2022/05/02 00:33:48;;;;;;;6.73;3.37;;;10.40;98.30;;;;;;5207184;28;20176;-50
2022/05/02 00:36:18;;;;;;;5.17;3.27;;;10.40;98.50;;;;;;5208104;28;20175;-50
2022/05/02 00:38:49;;;;;;;8.63;4.00;;;10.40;98.20;;;;;;5197367;28;20305;-51
2022/05/02 00:41:20;;;;;;;5.17;4.00;;;10.40;98.20;;;;;;5197720;28;20591;-53
2022/05/02 00:43:50;;;;;;;4.40;3.70;;;10.40;98.10;;;;;;5205199;28;20203;-51
2022/05/02 00:46:23;;;;;;;3.63;3.30;;;10.40;98.00;;;;;;5198301;28;20175;-50
2022/05/02 00:48:54;;;;;;;3.73;3.23;;;10.40;98.30;;;;;;5180068;28;20200;-49
2022/05/02 00:51:24;;;;;;;4.13;3.80;;;10.40;98.30;;;;;;5195809;28;20435;-51
2022/05/02 00:53:55;;;;;;;4.10;3.33;;;10.40;97.80;;;;;;5220655;28;20187;-51
2022/05/02 00:56:25;;;;;;;3.40;3.23;;;10.40;98.00;;;;;;5167829;28;20192;-50
2022/05/02 00:58:56;;;;;;;4.60;3.10;;;10.40;97.80;;;;;;5207119;28;20680;-51
2022/05/02 01:01:26;;;;;;;7.47;4.13;;;10.40;98.10;;;;;;5203357;28;20203;-51
2022/05/02 01:03:57;;;;;;;5.97;4.33;;;10.40;97.90;;;;;;5200877;28;20290;-50
2022/05/02 01:09:17;;;;;;;4.27;3.87;;;10.30;98.20;;;;;;5207991;28;20218;-49
2022/05/02 01:11:47;;;;;;;8.10;3.97;;;10.20;98.30;;;;;;5205586;28;20829;-49
2022/05/02 01:14:18;;;;;;;3.50;3.30;;;10.20;98.60;;;;;;5193885;28;20180;-48
2022/05/02 01:16:49;;;;;;;2.93;2.77;;;10.10;98.90;;;;;;5202496;28;20266;-50
2022/05/02 01:19:19;;;;;;;6.63;4.07;;;10.10;99.20;;;;;;5201855;28;20208;-49
2022/05/02 01:21:50;;;;;;;4.27;3.87;;;10.10;99.60;;;;;;5211563;28;20879;-52
2022/05/02 01:24:21;;;;;;;6.87;2.60;;;10.00;99.90;;;;;;5216355;28;20238;-49
2022/05/02 01:26:52;;;;;;;4.87;3.57;;;10.00;99.90;;;;;;5215338;28;20180;-48
2022/05/02 01:29:23;;;;;;;3.77;2.80;;;10.00;99.90;;;;;;5208013;28;20211;-50
2022/05/02 01:31:54;;;;;;;3.80;3.50;;;10.00;99.90;;;;;;5174559;28;20501;-50
2022/05/02 01:34:25;;;;;;;3.63;3.33;;;9.90;99.90;;;;;;5186528;28;20577;-50
2022/05/02 01:36:56;;;;;;;3.83;3.20;;;9.90;99.90;;;;;;5211859;28;20438;-48
2022/05/02 01:39:26;;;;;;;6.53;3.13;;;9.80;99.90;;;;;;5214156;28;20233;-50
2022/05/02 01:42:15;;;;;;;5.40;3.33;;;9.80;99.90;;;;;;5205525;28;20180;-49
2022/05/02 01:44:46;;;;;;;8.87;3.73;;;9.80;99.90;;;;;;5198942;28;20375;-49
2022/05/02 01:47:16;;;;;;;5.20;3.60;;;9.60;99.90;;;;;;5217113;28;20851;-49
2022/05/02 01:49:47;;;;;;;3.77;3.47;;;9.60;99.90;;;;;;5200529;28;20550;-49
2022/05/02 01:52:17;;;;;;;3.80;3.40;;;9.60;99.90;;;;;;5190202;28;20176;-51
2022/05/02 01:54:48;;;;;;;3.20;2.97;;;9.60;99.90;;;;;;5199056;28;20190;-50
2022/05/02 01:57:19;;;;;;;5.20;3.00;;;9.60;99.90;;;;;;5190558;28;20679;-49
2022/05/02 01:59:49;;;;;;;3.50;3.20;;;9.50;99.90;;;;;;5202201;28;20442;-50
2022/05/02 02:02:20;;;;;;;3.30;3.10;;;9.50;99.90;;;;;;5184936;28;20661;-50
2022/05/02 02:07:39;;;;;;;4.87;2.20;;;9.40;99.90;;;;;;5213375;28;20534;-50
2022/05/02 02:10:10;;;;;;;4.13;2.50;;;9.30;99.90;;;;;;5178843;28;20858;-49
2022/05/02 02:12:40;;;;;;;3.07;2.97;;;9.30;99.90;;;;;;5178950;28;20204;-49
2022/05/02 02:15:14;;;;;;;9.90;3.23;;;9.20;99.90;;;;;;5205974;28;20184;-49
2022/05/02 02:17:45;;;;;;;2.97;2.63;;;9.10;99.90;;;;;;5204951;28;20207;-49
2022/05/02 02:20:15;;;;;;;3.30;3.00;;;9.10;99.90;;;;;;5219552;28;20576;-50
2022/05/02 02:22:46;;;;;;;5.90;2.80;;;9.00;99.90;;;;;;5203614;28;20682;-49
2022/05/02 02:25:16;;;;;;;3.37;3.07;;;8.90;99.90;;;;;;5199757;28;20262;-50
2022/05/02 02:27:47;;;;;;;3.33;2.90;;;8.80;99.90;;;;;;5186468;28;20199;-50
2022/05/02 02:30:19;;;;;;;5.17;3.07;;;8.80;99.90;;;;;;5197596;28;20281;-49
2022/05/02 02:32:49;;;;;;;3.30;2.93;;;8.80;99.90;;;;;;5206272;28;20212;-49
2022/05/02 02:35:20;;;;;;;4.13;3.33;;;8.80;99.90;;;;;;5183405;28;20440;-49
2022/05/02 02:37:51;;;;;;;3.13;2.57;;;8.80;99.90;;;;;;5180250;28;20203;-50
2022/05/02 02:40:22;;;;;;;3.50;3.20;;;8.70;99.90;;;;;;5193003;28;21011;-49
2022/05/02 02:42:52;;;;;;;4.20;2.80;;;8.70;99.90;;;;;;5193957;28;20211;-49
2022/05/02 02:45:23;;;;;;;3.30;3.10;;;8.60;99.90;;;;;;5215951;28;20590;-51
2022/05/02 02:47:53;;;;;;;3.57;3.27;;;8.60;99.90;;;;;;5198501;28;20227;-50
2022/05/02 02:50:24;;;;;;;4.17;3.70;;;8.50;99.90;;;;;;5200950;28;20654;-49
2022/05/02 02:52:54;;;;;;;5.60;3.50;;;8.50;99.90;;;;;;5204892;28;20191;-49
2022/05/02 02:55:25;;;;;;;5.53;3.67;;;8.40;99.90;;;;;;5196122;28;20209;-49
2022/05/02 02:57:56;;;;;;;8.20;4.13;;;8.40;99.90;;;;;;5198720;28;20556;-49
2022/05/02 03:00:26;;;;;;;5.63;4.03;;;8.40;99.90;;;;;;5190232;28;20489;-48
2022/05/02 03:02:57;;;;;;;5.10;3.30;;;8.40;99.90;;;;;;5207329;28;20218;-48
2022/05/02 03:08:17;;;;;;;5.00;4.07;;;8.30;99.90;;;;;;5218669;28;21212;-51
2022/05/02 03:10:48;;;;;;;5.60;3.93;;;8.30;99.90;;;;;;5207280;28;20426;-49
2022/05/02 03:13:18;;;;;;;5.90;3.80;;;8.30;99.90;;;;;;5202313;28;20190;-48
2022/05/02 03:15:49;;;;;;;5.73;3.70;;;8.20;99.90;;;;;;5221384;28;20220;-49
2022/05/02 03:18:19;;;;;;;3.57;3.27;;;8.20;99.90;;;;;;5203664;28;20297;-49
2022/05/02 03:20:50;;;;;;;4.10;3.80;;;8.20;99.90;;;;;;5199077;28;20322;-48
2022/05/02 03:23:21;;;;;;;3.87;3.40;;;8.20;99.90;;;;;;5208522;28;20222;-49
2022/05/02 03:25:51;;;;;;;3.83;3.50;;;8.20;99.90;;;;;;5177305;28;20271;-49
2022/05/02 03:28:22;;;;;;;6.70;5.50;;;8.10;99.90;;;;;;5205940;28;20301;-50
2022/05/02 03:30:52;;;;;;;7.10;5.10;;;8.10;99.90;;;;;;5201843;28;20223;-49
2022/05/02 03:33:23;;;;;;;8.20;5.60;;;8.10;99.90;;;;;;5202577;28;20183;-49
2022/05/02 03:35:53;;;;;;;7.43;4.80;;;8.00;99.90;;;;;;5190742;28;20280;-50
2022/05/02 03:38:24;;;;;;;7.00;4.20;;;8.00;99.90;;;;;;5215037;28;20690;-49
2022/05/02 03:40:54;;;;;;;5.00;4.30;;;8.00;99.90;;;;;;5187847;28;20192;-49
2022/05/02 03:43:25;;;;;;;5.70;3.80;;;8.00;99.90;;;;;;5195155;28;20624;-49
2022/05/02 03:45:55;;;;;;;4.93;4.40;;;8.10;99.90;;;;;;5202319;28;20194;-49
2022/05/02 03:48:26;;;;;;;4.43;3.47;;;8.10;99.90;;;;;;5186210;28;20203;-50
2022/05/02 03:50:57;;;;;;;5.63;3.80;;;8.10;99.90;;;;;;5202664;28;20606;-49
2022/05/02 03:53:27;;;;;;;7.17;3.40;;;8.10;99.90;;;;;;5209753;28;20928;-50
2022/05/02 03:55:58;;;;;;;3.23;3.03;;;8.20;99.90;;;;;;5215296;28;20198;-49
2022/05/02 03:58:28;;;;;;;4.57;3.60;;;8.30;99.90;;;;;;5211689;28;20203;-48
2022/05/02 04:00:59;;;;;;;3.93;3.60;;;8.30;99.90;;;;;;5208448;28;20229;-50
2022/05/02 04:03:30;;;;;;;5.87;3.80;;;8.30;99.90;;;;;;5195271;28;20204;-50
2022/05/02 04:06:00;;;;;;;3.93;3.63;;;8.40;99.90;;;;;;5214773;28;20185;-49
2022/05/02 04:08:31;;;;;;;4.80;3.70;;;8.40;99.90;;;;;;5199387;28;20225;-50
2022/05/02 04:11:02;;;;;;;13.67;3.73;;;8.40;99.90;;;;;;5200757;28;20659;-48
2022/05/02 04:13:33;;;;;;;4.33;3.70;;;8.50;99.90;;;;;;5206157;28;20640;-49
2022/05/02 04:16:04;;;;;;;6.60;3.63;;;8.50;99.90;;;;;;5215787;28;20444;-49
2022/05/02 04:18:34;;;;;;;15.60;4.00;;;8.50;99.90;;;;;;5186505;28;20632;-49
2022/05/02 04:21:05;;;;;;;4.10;3.70;;;8.60;99.90;;;;;;5186985;28;20197;-48
2022/05/02 04:23:35;;;;;;;5.03;4.03;;;8.60;99.90;;;;;;5200028;28;20218;-49
2022/05/02 04:26:06;;;;;;;4.30;3.90;;;8.70;99.90;;;;;;5188851;28;20266;-49
2022/05/02 04:28:36;;;;;;;9.73;3.77;;;8.80;99.90;;;;;;5215889;28;20205;-49
2022/05/02 04:31:07;;;;;;;4.50;3.67;;;8.80;99.90;;;;;;5197846;28;20197;-48
2022/05/02 04:33:39;;;;;;;10.93;4.80;;;8.80;99.90;;;;;;5200176;28;20188;-50
2022/05/02 04:36:10;;;;;;;4.70;4.30;;;8.80;99.90;;;;;;5196543;28;20238;-50
2022/05/02 04:38:40;;;;;;;6.23;4.70;;;8.80;99.90;;;;;;5211675;28;20468;-49
2022/05/02 04:41:13;;;;;;;5.70;3.70;;;8.90;99.90;;;;;;5178529;28;20187;-49
2022/05/02 04:43:44;;;;;;;6.97;4.63;;;9.10;99.90;;;;;;5197698;28;20198;-50
2022/05/02 04:46:14;;;;;;;6.93;4.33;;;9.30;99.90;;;;;;5196064;28;20438;-50
2022/05/02 04:48:45;;;;;;;4.73;3.87;;;9.40;99.90;;;;;;5193922;28;20583;-50
2022/05/02 04:51:16;;;;;;;5.70;4.70;;;9.60;99.90;;;;;;5188103;28;20176;-49
2022/05/02 04:53:46;;;;;;;3.70;3.40;;;9.90;99.90;;;;;;5199450;28;20177;-49
2022/05/02 04:56:17;;;;;;;4.63;4.23;;;10.20;99.90;;;;;;5211294;28;20218;-50
2022/05/02 04:58:47;;;;;;;7.23;4.73;;;10.40;99.90;;;;;;5210603;28;20298;-50
2022/05/02 05:01:18;;;;;;;22.83;5.00;;;10.50;99.90;;;;;;5199905;28;20186;-48
2022/05/02 05:03:48;;;;;;;5.27;4.77;;;10.60;99.90;;;;;;5191287;28;20763;-50
2022/05/02 05:06:19;;;;;;;10.30;5.07;;;11.00;99.90;;;;;;5179057;28;20179;-50
2022/05/02 05:08:50;;;;;;;8.17;4.30;;;11.00;99.90;;;;;;5191641;28;20204;-50
2022/05/02 05:11:49;;;;;;;6.60;4.60;;;11.00;99.90;;;;;;5206128;28;20203;-50
2022/05/02 05:17:49;;;;;;;4.80;4.00;;;12.40;97.10;;;;;;5203483;28;20430;-50
2022/05/02 05:20:54;;;;;;;18.30;5.37;;;14.70;81.50;;;;;;5192859;28;20528;-49
2022/05/02 05:23:56;;;;;;;3.40;3.20;;;16.90;60.10;;;;;;5181705;28;20457;-50
2022/05/02 05:26:36;;;;;;;5.50;4.13;;;18.50;52.40;;;;;;5207710;28;20430;-50
2022/05/02 05:29:15;;;;;;;5.73;4.20;;;19.60;46.50;;;;;;5202822;28;20438;-50
2022/05/02 05:32:02;;;;;;;6.50;4.33;;;20.20;44.40;;;;;;5201177;28;20452;-51
2022/05/02 05:35:08;;;;;;;5.50;5.00;;;21.00;41.40;;;;;;5179781;28;20465;-49
2022/05/02 05:38:02;;;;;;;6.70;4.50;;;20.80;39.60;;;;;;5195730;28;20454;-50
2022/05/02 05:40:42;;;;;;;4.67;4.23;;;20.50;40.10;;;;;;5196183;28;20790;-51
2022/05/02 05:43:35;;;;;;;9.63;5.10;;;20.80;39.40;;;;;;5185875;28;20794;-50
2022/05/02 05:46:20;;;;;;;8.23;5.77;;;21.00;38.50;;;;;;5181229;28;20478;-52
2022/05/02 05:49:00;;;;;;;18.57;4.50;;;21.40;38.20;;;;;;5201975;28;20465;-50
2022/05/02 05:51:42;;;;;;;4.90;4.03;;;21.80;38.20;;;;;;5192088;28;20442;-55
2022/05/02 05:54:49;;;;;;;5.63;4.93;;;21.60;37.90;;;;;;5194309;28;20478;-52
2022/05/02 05:57:32;;;;;;;3.90;3.60;;;20.20;37.50;;;;;;5182846;28;20994;-49
2022/05/02 06:00:09;;;;;;;14.83;5.27;;;19.10;40.50;;;;;;5196390;28;20443;-49
2022/05/02 06:03:06;;;;;;;10.87;4.90;;;17.60;42.00;;;;;;5170982;28;20447;-49
2022/05/02 06:05:41;;;;;;;9.00;4.93;;;16.50;44.60;;;;;;5201065;28;20443;-49
2022/05/02 06:08:17;;;;;;;7.93;3.80;;;16.00;45.70;;;;;;5196746;28;20457;-49
2022/05/02 06:10:51;;;;;;;10.97;4.70;;;15.80;46.40;;;;;;5202067;28;20509;-49
2022/05/02 06:13:23;;;;;;;5.00;4.10;;;15.30;46.00;;;;;;5182105;28;20442;-49
2022/05/02 06:18:54;;;;;;;3.90;3.17;;;16.50;47.40;;;;;;5161112;28;20469;-50
2022/05/02 06:21:24;;;;;;;8.30;4.17;;;19.10;42.60;;;;;;5197410;28;20469;-49
2022/05/02 06:23:57;;;;;;;5.13;2.87;;;20.70;38.90;;;;;;5202952;28;20454;-49
2022/05/02 06:26:28;;;;;;;7.63;3.30;;;22.00;36.60;;;;;;5201031;28;20555;-50
2022/05/02 06:28:58;;;;;;;4.87;3.90;;;22.30;34.50;;;;;;5193549;28;20442;-50
2022/05/02 06:31:31;;;;;;;8.33;3.60;;;22.20;34.60;;;;;;5180907;28;20211;-50
2022/05/02 06:34:03;;;;;;;2.80;2.60;;;23.30;33.70;;;;;;5183183;28;20195;-50
2022/05/02 06:36:59;;;;;;;4.67;3.20;;;23.90;32.40;;;;;;5195785;28;20460;-50
2022/05/02 06:39:58;;;;;;;3.60;2.93;;;24.90;30.40;;;;;;5194792;28;20883;-50
2022/05/02 06:42:40;;;;;;;8.73;4.70;;;25.10;29.10;;;;;;5196717;28;20442;-50
2022/05/02 06:45:32;;;;;;;6.10;3.57;;;25.90;28.70;;;;;;5177752;28;20834;-50
2022/05/02 06:48:28;;;;;;;4.70;2.53;;;26.60;27.50;;;;;;5195925;28;20463;-50
2022/05/02 06:51:13;;;;;;;3.33;2.97;;;26.60;26.50;;;;;;5178118;28;20941;-50
2022/05/02 06:54:02;;;;;;;8.17;2.80;;;27.60;26.80;;;;;;5191934;28;20499;-47
2022/05/02 06:56:40;;;;;;;4.27;2.90;;;28.30;26.00;;;;;;5201456;28;20942;-53
2022/05/02 06:59:31;;;;;;;2.53;2.33;;;28.90;25.10;;;;;;5198484;28;20459;-53
2022/05/02 07:02:02;;;;;;;5.00;2.70;;;29.60;24.50;;;;;;5194574;28;20896;-52
2022/05/02 07:04:45;;;;;;;7.40;3.73;;;29.90;23.80;;;;;;5181678;28;20465;-53
2022/05/02 07:07:44;;;;;;;7.37;2.70;;;30.30;23.10;;;;;;5183602;28;20643;-49
2022/05/02 07:10:26;;;;;;;2.47;2.23;;;30.00;23.20;;;;;;5195823;28;20440;-47
2022/05/02 07:13:06;;;;;;;5.03;3.10;;;30.20;23.50;;;;;;5202886;28;20438;-50
2022/05/02 07:15:59;;;;;;;6.70;3.27;;;30.00;22.60;;;;;;5203309;28;20450;-49
2022/05/02 07:19:07;;;;;;;9.83;3.00;;;29.90;23.50;;;;;;5198317;28;20466;-53
2022/05/02 07:21:49;;;;;;;6.23;2.53;;;30.20;22.10;;;;;;5195701;28;20505;-52
2022/05/02 07:24:51;;;;;;;5.53;3.10;;;31.00;22.00;;;;;;5197053;28;20462;-54
2022/05/02 07:27:30;;;;;;;3.17;2.87;;;31.50;22.20;;;;;;5198697;28;20469;-54
2022/05/02 07:30:01;;;;;;;3.53;2.60;;;32.00;21.70;;;;;;5177174;28;20434;-52
2022/05/02 07:32:33;;;;;;;8.50;3.13;;;32.00;21.60;;;;;;5193466;28;20438;-54
2022/05/02 07:35:04;;;;;;;3.70;2.67;;;31.80;21.70;;;;;;5180348;28;20215;-52
2022/05/02 07:37:36;;;;;;;11.50;5.07;;;32.20;21.70;;;;;;5201782;28;20496;-53
2022/05/02 07:40:11;;;;;;;4.87;2.63;;;32.60;21.70;;;;;;5182200;28;20674;-53
2022/05/02 07:42:44;;;;;;;2.87;2.67;;;31.90;22.00;;;;;;5182055;28;20787;-52
2022/05/02 07:45:17;;;;;;;3.73;2.60;;;31.90;22.20;;;;;;5184641;28;20437;-52
2022/05/02 07:47:51;;;;;;;4.67;2.73;;;31.70;22.80;;;;;;5197972;28;20528;-51
2022/05/02 07:50:25;;;;;;;8.13;2.37;;;31.60;21.90;;;;;;5178971;28;20806;-53
2022/05/02 07:52:58;;;;;;;6.97;2.20;;;31.30;22.60;;;;;;5181556;28;20442;-52
2022/05/02 07:55:30;;;;;;;2.90;2.70;;;31.60;22.50;;;;;;5198690;28;20442;-54
2022/05/02 07:58:03;;;;;;;2.53;2.40;;;30.90;22.40;;;;;;5185545;28;20459;-53
2022/05/02 08:00:33;;;;;;;3.50;2.40;;;29.70;23.80;;;;;;5177393;28;20498;-53
2022/05/02 08:03:04;;;;;;;8.83;2.67;;;29.70;23.40;;;;;;5196347;28;20454;-53
2022/05/02 08:05:39;;;;;;;5.00;2.20;;;28.60;24.00;;;;;;5182611;28;20675;-53
2022/05/02 08:08:25;;;;;;;4.93;2.87;;;28.20;24.90;;;;;;5169402;28;20563;-58
2022/05/02 08:11:13;;;;;;;2.47;2.33;;;28.70;24.20;;;;;;5185030;28;20442;-54
2022/05/02 08:14:02;;;;;;;4.33;2.47;;;28.10;24.90;;;;;;5202852;28;20450;-54
2022/05/02 08:16:40;;;;;;;4.00;2.63;;;28.50;24.80;;;;;;5203430;28;20441;-55
2022/05/02 08:19:37;;;;;;;3.33;2.20;;;29.20;24.40;;;;;;5185624;28;20623;-54
2022/05/02 08:28:07;;;;;;;6.43;2.87;;;29.80;24.00;;;;;;5203864;28;20493;-56
2022/05/02 08:31:08;;;;;;;3.37;2.90;;;29.60;24.20;;;;;;5174217;28;20458;-55
2022/05/02 08:33:51;;;;;;;5.70;2.60;;;28.20;25.10;;;;;;5211018;28;20441;-51
2022/05/02 08:36:47;;;;;;;4.73;3.07;;;27.90;26.30;;;;;;5176653;28;20442;-54
2022/05/02 08:39:31;;;;;;;2.77;2.57;;;27.40;26.30;;;;;;5202000;28;20456;-50
2022/05/02 08:42:43;;;;;;;5.10;3.07;;;27.20;26.80;;;;;;5174034;28;20493;-53
2022/05/02 08:45:51;;;;;;;6.20;3.60;;;26.70;27.00;;;;;;5175635;28;20522;-51
2022/05/02 08:49:32;;;;;;;8.97;2.80;;;26.30;27.80;;;;;;5183518;28;20573;-51
2022/05/02 08:51:56;;;;;;;5.23;3.10;;;25.80;28.20;;;;;;5200620;28;21009;-52
2022/05/02 08:54:49;;;;;;;3.40;3.10;;;25.00;28.90;;;;;;5201390;28;20456;-52
2022/05/02 08:57:57;;;;;;;9.37;2.67;;;23.80;29.80;;;;;;5196497;28;20465;-53
2022/05/02 09:00:56;;;;;;;9.63;3.63;;;22.70;30.90;;;;;;5185146;28;20443;-53
2022/05/02 09:04:03;;;;;;;2.13;2.03;;;21.80;32.30;;;;;;5183439;28;21069;-59
2022/05/02 09:06:43;;;;;;;9.73;3.33;;;20.80;33.50;;;;;;5187386;28;20963;-52
2022/05/02 09:09:45;;;;;;;8.37;3.10;;;20.00;34.40;;;;;;5200423;28;20464;-53
2022/05/02 09:12:25;;;;;;;3.80;3.50;;;19.30;35.90;;;;;;5193739;28;21060;-52
2022/05/02 09:15:12;;;;;;;4.67;3.67;;;19.00;36.70;;;;;;5203715;28;20480;-50
2022/05/02 09:18:21;;;;;;;4.47;3.27;;;18.80;37.10;;;;;;5198798;28;20880;-54
2022/05/02 09:21:24;;;;;;;6.70;3.70;;;18.70;37.40;;;;;;5198708;28;20583;-52
2022/05/02 09:24:32;;;;;;;4.37;3.00;;;18.20;37.80;;;;;;5199690;28;20500;-52
2022/05/02 09:27:08;;;;;;;4.13;2.60;;;18.20;38.30;;;;;;5183729;28;20610;-52
2022/05/02 09:29:59;;;;;;;4.93;2.67;;;18.00;38.50;;;;;;5207588;28;20462;-51
2022/05/02 09:32:58;;;;;;;4.33;2.57;;;18.10;38.60;;;;;;5181462;28;20468;-54
2022/05/02 09:35:34;;;;;;;3.63;2.43;;;18.30;38.40;;;;;;5181554;28;20469;-52
2022/05/02 09:38:26;;;;;;;3.23;2.97;;;18.60;38.90;;;;;;5193555;28;20940;-50
2022/05/02 09:41:06;;;;;;;5.57;4.87;;;19.00;37.90;;;;;;5168319;28;20434;-52
2022/05/02 09:50:02;;;;;;;2.93;2.77;;;19.00;37.60;;;;;;5194860;28;20438;-53
2022/05/02 09:53:03;;;;;;;3.13;2.93;;;19.40;37.40;;;;;;5181513;28;20526;-50
2022/05/02 09:59:00;;;;;;;12.60;4.97;;;19.60;36.70;;;;;;5201792;28;20461;-50
2022/05/02 10:01:32;;;;;;;5.07;3.20;;;19.50;36.90;;;;;;5179314;28;20449;-52
2022/05/02 10:04:30;;;;;;;7.47;4.20;;;19.60;36.40;;;;;;5182375;28;20474;-53
2022/05/02 10:07:09;;;;;;;6.33;3.67;;;19.70;36.60;;;;;;5175667;28;20771;-51
2022/05/02 10:09:48;;;;;;;4.23;3.20;;;19.80;36.20;;;;;;5182778;28;20439;-52
2022/05/02 10:12:48;;;;;;;2.90;2.57;;;19.80;35.80;;;;;;5195852;28;20422;-54
2022/05/02 10:15:38;;;;;;;4.97;3.50;;;19.50;36.70;;;;;;5197740;28;20497;-51
2022/05/02 10:18:15;;;;;;;4.07;3.30;;;19.60;36.60;;;;;;5195550;28;20466;-51
2022/05/02 10:21:09;;;;;;;6.87;3.27;;;19.70;36.40;;;;;;5178119;28;20453;-54
2022/05/02 10:23:59;;;;;;;5.67;3.40;;;19.70;36.30;;;;;;5190766;28;20459;-53
2022/05/02 10:26:41;;;;;;;4.53;3.00;;;19.10;36.80;;;;;;5181217;28;20435;-50
2022/05/02 10:29:46;;;;;;;6.47;2.80;;;19.00;37.60;;;;;;5197917;28;20473;-50
2022/05/02 10:32:42;;;;;;;3.13;2.90;;;19.20;37.50;;;;;;5152933;28;20438;-53
2022/05/02 10:35:16;;;;;;;3.20;3.00;;;19.10;37.60;;;;;;5199880;28;20456;-50
2022/05/02 10:37:56;;;;;;;6.07;3.40;;;18.90;37.70;;;;;;5199119;28;20458;-51
2022/05/02 10:40:40;;;;;;;3.40;3.30;;;18.80;37.90;;;;;;5179919;28;20617;-52
2022/05/02 10:43:26;;;;;;;3.50;3.20;;;18.30;39.30;;;;;;5184109;28;20867;-51
2022/05/02 10:45:59;;;;;;;3.50;3.27;;;18.10;39.20;;;;;;5181757;28;20443;-55
2022/05/02 10:48:37;;;;;;;4.73;3.33;;;18.20;39.30;;;;;;5183576;28;20461;-52
2022/05/02 10:51:19;;;;;;;7.47;3.80;;;18.00;39.30;;;;;;5181194;28;20468;-52
2022/05/02 10:53:58;;;;;;;4.13;3.20;;;17.50;39.70;;;;;;5201348;28;20520;-52
2022/05/02 10:56:31;;;;;;;4.63;3.20;;;17.20;40.50;;;;;;5182904;28;20584;-53
2022/05/02 10:59:05;;;;;;;5.60;3.97;;;17.30;41.10;;;;;;5185290;28;20985;-57
2022/05/02 11:02:03;;;;;;;3.53;3.23;;;17.50;41.00;;;;;;5206794;28;20452;-55
2022/05/02 11:05:01;;;;;;;5.53;2.60;;;17.70;40.60;;;;;;5178029;28;20466;-51
2022/05/02 11:08:11;;;;;;;4.77;3.50;;;17.90;40.10;;;;;;5193007;28;20485;-53
2022/05/02 11:10:56;;;;;;;4.70;2.63;;;18.00;39.60;;;;;;5198074;28;20472;-52
2022/05/02 11:13:43;;;;;;;4.93;3.27;;;18.00;39.70;;;;;;5193362;28;20496;-52
2022/05/02 11:16:33;;;;;;;3.10;2.87;;;18.30;39.10;;;;;;5195229;28;20443;-54
2022/05/02 11:22:20;;;;;;;4.60;4.20;;;18.80;38.50;;;;;;5196642;28;20778;-54
2022/05/02 11:25:06;;;;;;;4.37;3.60;;;18.90;38.10;;;;;;5194985;28;20764;-50
2022/05/02 11:27:51;;;;;;;10.00;4.60;;;19.10;38.10;;;;;;5196498;28;20454;-51
2022/05/02 11:30:28;;;;;;;5.50;4.10;;;19.30;38.20;;;;;;5176567;28;20470;-51
2022/05/02 11:33:11;;;;;;;4.23;3.83;;;19.20;37.70;;;;;;5170923;28;20438;-54
2022/05/02 11:35:47;;;;;;;9.70;3.10;;;19.00;37.80;;;;;;5177054;28;20438;-52
2022/05/02 11:38:21;;;;;;;3.90;3.63;;;19.00;38.30;;;;;;5192396;28;20553;-53
2022/05/02 11:40:57;;;;;;;9.53;3.53;;;19.00;38.00;;;;;;5194217;28;20443;-54
2022/05/02 11:43:31;;;;;;;3.60;3.30;;;18.90;38.10;;;;;;5193021;28;20470;-52
2022/05/02 11:46:09;;;;;;;5.00;3.93;;;18.70;38.20;;;;;;5193846;28;20443;-51
2022/05/02 11:49:05;;;;;;;5.27;3.77;;;18.60;38.50;;;;;;5193902;28;20474;-51
2022/05/02 11:51:45;;;;;;;7.53;3.90;;;18.80;38.10;;;;;;5197716;28;20769;-54
2022/05/02 11:54:27;;;;;;;5.33;3.40;;;18.80;38.00;;;;;;5177229;28;20631;-51
2022/05/02 11:57:10;;;;;;;3.20;2.93;;;18.70;38.50;;;;;;5195638;28;20446;-51
2022/05/02 12:00:11;;;;;;;5.70;3.27;;;18.90;38.40;;;;;;5196920;28;20798;-53
2022/05/02 12:02:56;;;;;;;6.17;5.57;;;19.00;38.20;;;;;;5169877;28;20444;-53
2022/05/02 12:05:46;;;;;;;3.97;3.67;;;19.20;38.40;;;;;;5198791;28;20441;-55
2022/05/02 12:08:27;;;;;;;3.93;3.53;;;19.40;37.70;;;;;;5180562;28;20809;-54
2022/05/02 12:11:08;;;;;;;4.20;3.80;;;19.40;37.80;;;;;;5179584;28;20445;-57
2022/05/02 12:13:44;;;;;;;4.30;3.37;;;19.20;37.60;;;;;;5191926;28;20805;-56
2022/05/02 12:16:17;;;;;;;11.40;6.40;;;19.00;38.10;;;;;;5175549;28;20501;-55
2022/05/02 12:18:50;;;;;;;8.83;4.67;;;18.70;38.20;;;;;;5195786;28;20474;-53
2022/05/02 12:21:31;;;;;;;3.57;3.30;;;18.60;38.80;;;;;;5183476;28;20572;-53
2022/05/02 12:24:03;;;;;;;4.07;3.20;;;18.60;39.10;;;;;;5179282;28;20453;-55
2022/05/02 12:26:43;;;;;;;2.60;2.50;;;18.60;38.70;;;;;;5181643;28;20510;-56
2022/05/02 12:29:17;;;;;;;6.60;3.97;;;18.70;38.60;;;;;;5192850;28;20454;-56
2022/05/02 12:31:59;;;;;;;17.87;12.30;;;18.70;38.70;;;;;;5199087;28;20434;-52
2022/05/02 12:34:39;;;;;;;16.60;8.30;;;18.80;38.90;;;;;;5173789;28;20439;-54
2022/05/02 12:37:23;;;;;;;8.97;6.00;;;18.80;39.00;;;;;;5178024;28;20454;-53
2022/05/02 12:40:09;;;;;;;4.50;3.30;;;18.90;39.10;;;;;;5187064;28;20729;-57
2022/05/02 12:42:48;;;;;;;35.37;20.17;;;18.90;38.80;;;;;;5194609;28;20430;-54
2022/05/02 12:45:20;;;;;;;6.03;4.03;;;19.00;39.30;;;;;;5184233;28;20553;-58
2022/05/02 12:47:53;;;;;;;3.73;3.10;;;19.00;38.90;;;;;;5195259;28;20502;-54
2022/05/02 12:50:27;;;;;;;5.07;4.27;;;18.90;39.10;;;;;;5177876;28;20974;-54
2022/05/02 12:53:10;;;;;;;7.40;3.27;;;18.80;39.30;;;;;;5198123;28;20439;-56
2022/05/02 12:55:41;;;;;;;5.40;3.07;;;18.90;39.50;;;;;;5195543;28;20954;-55
2022/05/02 13:01:05;;;;;;;3.60;3.40;;;19.20;38.90;;;;;;5197885;28;20178;-55
2022/05/02 13:03:37;;;;;;;3.20;3.00;;;19.20;38.50;;;;;;5194299;28;20537;-56
2022/05/02 13:06:10;;;;;;;2.87;2.70;;;19.30;38.70;;;;;;5197882;28;20442;-55
2022/05/02 13:08:41;;;;;;;3.73;3.37;;;19.60;38.70;;;;;;5196583;28;20577;-54
2022/05/02 13:11:21;;;;;;;6.50;3.23;;;19.90;38.70;;;;;;5189575;28;20430;-55
2022/05/02 13:13:54;;;;;;;3.77;3.47;;;19.60;38.00;;;;;;5197391;28;20438;-55
2022/05/02 13:16:27;;;;;;;2.60;2.43;;;19.60;38.40;;;;;;5183942;28;20442;-56
2022/05/02 13:19:06;;;;;;;3.07;2.87;;;19.70;38.70;;;;;;5185143;28;20532;-53
2022/05/02 13:21:37;;;;;;;2.60;2.40;;;19.90;38.40;;;;;;5195914;28;20429;-56
2022/05/02 13:24:11;;;;;;;2.80;2.70;;;20.20;38.10;;;;;;5189175;28;20565;-53
2022/05/02 13:27:07;;;;;;;4.70;4.20;;;20.40;37.70;;;;;;5200236;28;20446;-55
2022/05/02 13:29:58;;;;;;;6.83;4.43;;;20.70;36.90;;;;;;5176771;28;20470;-54
2022/05/02 13:32:41;;;;;;;6.30;4.90;;;20.80;36.40;;;;;;5190926;28;20434;-55
2022/05/02 13:35:17;;;;;;;7.43;3.30;;;20.80;36.70;;;;;;5191344;28;20453;-57
2022/05/02 13:38:01;;;;;;;7.30;5.73;;;20.70;36.60;;;;;;5179414;28;20974;-55
2022/05/02 13:40:42;;;;;;;10.27;8.53;;;20.40;36.80;;;;;;5174583;28;20435;-54
2022/05/02 13:43:35;;;;;;;4.53;3.80;;;20.30;36.90;;;;;;5197109;28;20788;-55
2022/05/02 13:46:22;;;;;;;11.70;4.93;;;19.90;37.30;;;;;;5202404;28;20458;-55
2022/05/02 13:49:18;;;;;;;5.43;4.20;;;19.70;37.90;;;;;;5199251;28;20797;-54
2022/05/02 13:52:01;;;;;;;3.00;2.80;;;19.70;38.10;;;;;;5193063;28;20446;-55
2022/05/02 13:54:38;;;;;;;10.03;2.97;;;19.70;38.00;;;;;;5202897;28;20450;-51
2022/05/02 13:57:19;;;;;;;16.53;9.80;;;19.70;37.70;;;;;;5186637;28;20486;-55
2022/05/02 13:59:55;;;;;;;9.20;7.37;;;19.60;37.80;;;;;;5177701;28;20429;-56
2022/05/02 14:02:41;;;;;;;6.93;5.63;;;19.50;38.00;;;;;;5198184;28;20795;-54
2022/05/02 14:05:34;;;;;;;6.80;3.70;;;19.60;38.10;;;;;;5194919;28;20531;-57
2022/05/02 14:08:07;;;;;;;3.00;2.80;;;19.50;38.00;;;;;;5197255;28;20457;-56
2022/05/02 14:10:56;;;;;;;4.87;3.03;;;19.40;38.10;;;;;;5189322;28;20930;-55
2022/05/02 14:13:28;;;;;;;10.13;4.37;;;19.30;38.30;;;;;;5194095;28;20557;-57
2022/05/02 14:16:07;;;;;;;3.57;3.27;;;19.30;38.50;;;;;;5196789;28;20465;-55
2022/05/02 14:18:51;;;;;;;22.13;11.23;;;19.50;38.60;;;;;;5194905;28;20478;-52
2022/05/02 14:21:24;;;;;;;13.50;9.20;;;19.60;38.10;;;;;;5194279;28;20526;-56
2022/05/02 14:23:56;;;;;;;13.83;8.20;;;19.70;38.00;;;;;;5190315;28;20464;-56